Time;durP1;ratioP1;P1;durP2;ratioP2;P2;SDS_P1;SDS_P2;PMS_P1;PMS_P2;Temp;Humidity;BMP_temperature;BMP_pressure;BME280_temperature;BME280_humidity;BME280_pressure;Samples;Min_cycle;Max_cycle;Signal;HPM_P1;HPM_P2
2024/01/03 00:01:33;;;;;;;0.10;0.10;;;;;;;-145.06;100.00;57054.91;10480102;28;20478;-71
2024/01/03 00:06:34;;;;;;;0.10;0.10;;;;;;;-145.06;100.00;56789.41;10441066;28;20031;-71
2024/01/03 00:11:34;;;;;;;0.10;0.10;;;;;;;-145.06;100.00;56517.84;10465189;28;20029;-71
2024/01/03 00:16:39;;;;;;;0.10;0.10;;;;;;;-145.06;100.00;56290.91;10472050;28;20016;-72
2024/01/03 00:21:39;;;;;;;0.10;0.10;;;;;;;-145.06;100.00;56037.59;10466197;28;20509;-71
2024/01/03 00:26:40;;;;;;;0.00;0.00;;;;;;;-145.06;100.00;55768.13;10461560;28;20025;-70
2024/01/03 00:31:42;;;;;;;0.10;0.10;;;;;;;-145.06;100.00;55498.66;10461727;28;20299;-71
2024/01/03 00:36:42;;;;;;;0.10;0.10;;;;;;;-145.06;100.00;55316.31;10467412;28;20017;-70
2024/01/03 00:41:43;;;;;;;0.10;0.10;;;;;;;-145.06;100.00;55186.66;10456779;28;20013;-71
2024/01/03 00:46:43;;;;;;;0.00;0.00;;;;;;;-145.06;100.00;54976.00;10462006;28;20036;-70
2024/01/03 00:51:47;;;;;;;0.10;0.10;;;;;;;-145.06;100.00;54807.88;10463491;28;20024;-70
2024/01/03 00:56:48;;;;;;;0.10;0.10;;;;;;;-145.06;100.00;54763.31;10465384;28;20505;-70
2024/01/03 01:01:49;;;;;;;0.10;0.10;;;;;;;-145.06;100.00;54747.09;10447554;28;20028;-70
2024/01/03 01:06:49;;;;;;;0.10;0.10;;;;;;;-145.06;100.00;54783.56;10450252;28;20388;-69
2024/01/03 01:11:50;;;;;;;0.00;0.00;;;;;;;-145.06;100.00;54722.78;10475074;28;20012;-69
2024/01/03 01:16:50;;;;;;;0.10;0.10;;;;;;;-145.06;100.00;54662.03;10466730;28;20016;-69
2024/01/03 01:21:50;;;;;;;0.00;0.00;;;;;;;-145.06;100.00;54615.44;10459553;28;20035;-68
2024/01/03 01:26:50;;;;;;;0.00;0.00;;;;;;;-145.06;100.00;54589.09;10468696;28;20056;-69
2024/01/03 01:31:51;;;;;;;0.10;0.10;;;;;;;-145.06;100.00;54593.16;10457517;28;20017;-70
2024/01/03 01:36:51;;;;;;;0.00;0.00;;;;;;;-145.06;100.00;54578.97;10453388;28;20036;-69
2024/01/03 01:41:52;;;;;;;0.10;0.10;;;;;;;-145.06;100.00;54572.91;10465383;28;20021;-69
2024/01/03 01:46:52;;;;;;;0.10;0.10;;;;;;;-145.06;100.00;54607.34;10461697;28;20028;-69
2024/01/03 01:51:53;;;;;;;0.10;0.10;;;;;;;-145.06;100.00;54631.63;10469362;28;20025;-71
2024/01/03 01:56:54;;;;;;;0.00;0.00;;;;;;;-145.06;100.00;54459.47;10453633;28;20017;-70
2024/01/03 02:01:56;;;;;;;0.10;0.10;;;;;;;-145.06;100.00;54425.03;10467141;28;20093;-70
2024/01/03 02:06:56;;;;;;;0.10;0.10;;;;;;;-145.06;100.00;54342.00;10465226;28;20036;-70
2024/01/03 02:11:56;;;;;;;0.10;0.10;;;;;;;-145.06;100.00;54309.59;10470181;28;20061;-69
2024/01/03 02:16:57;;;;;;;0.10;0.10;;;;;;;-145.06;100.00;54291.38;10446501;28;20507;-70
2024/01/03 02:22:00;;;;;;;0.10;0.10;;;;;;;-145.06;100.00;54356.19;10480073;28;20032;-69
2024/01/03 02:27:00;;;;;;;0.00;0.00;;;;;;;-145.06;100.00;54382.50;10445591;28;20181;-71
2024/01/03 02:32:00;;;;;;;0.10;0.10;;;;;;;-145.06;100.00;54412.88;10460736;28;20142;-70
2024/01/03 02:37:01;;;;;;;0.10;0.10;;;;;;;-145.06;100.00;54433.13;10486127;28;20025;-70
2024/01/03 02:42:01;;;;;;;0.10;0.10;;;;;;;-145.06;100.00;54520.22;10474664;28;20029;-71
2024/01/03 02:47:02;;;;;;;0.10;0.10;;;;;;;-145.06;100.00;54603.28;10462760;28;20032;-70
2024/01/03 02:52:02;;;;;;;0.10;0.10;;;;;;;-145.06;100.00;54657.97;10453853;28;20021;-71
2024/01/03 02:57:02;;;;;;;0.10;0.10;;;;;;;-145.06;100.00;54706.59;10451340;28;20025;-70
2024/01/03 03:02:03;;;;;;;0.03;0.03;;;;;;;-145.06;100.00;54621.50;10449217;28;20029;-71
2024/01/03 03:07:03;;;;;;;0.00;0.00;;;;;;;-145.06;100.00;54485.81;10462767;28;20271;-70
2024/01/03 03:12:04;;;;;;;0.10;0.10;;;;;;;-145.06;100.00;54463.53;10483043;28;20202;-69
2024/01/03 03:17:04;;;;;;;0.00;0.00;;;;;;;-145.06;100.00;54495.94;10463117;28;20032;-69
2024/01/03 03:22:04;;;;;;;0.10;0.10;;;;;;;-145.06;100.00;54528.34;10478767;28;20127;-69
2024/01/03 03:27:05;;;;;;;0.10;0.10;;;;;;;-145.06;100.00;54508.09;10464576;28;20024;-68
2024/01/03 03:32:05;;;;;;;0.10;0.10;;;;;;;-145.06;100.00;54475.66;10467832;28;20032;-70
2024/01/03 03:37:06;;;;;;;0.10;0.10;;;;;;;-145.06;100.00;54463.53;10458875;28;20025;-69
2024/01/03 03:42:06;;;;;;;0.10;0.10;;;;;;;-145.06;100.00;54439.22;10479705;28;20478;-69
2024/01/03 03:47:07;;;;;;;0.00;0.00;;;;;;;-145.06;100.00;54487.81;10471049;28;20489;-70
2024/01/03 03:52:07;;;;;;;0.08;0.08;;;;;;;-145.06;100.00;54524.28;10469233;28;20373;-69
2024/01/03 03:57:07;;;;;;;0.00;0.00;;;;;;;-145.06;100.00;54502.00;10472005;28;20025;-70
2024/01/03 04:02:08;;;;;;;0.10;0.10;;;;;;;-145.06;100.00;54495.94;10464691;28;20460;-69
2024/01/03 04:07:08;;;;;;;0.10;0.10;;;;;;;-145.06;100.00;54512.13;10469675;28;20028;-69
2024/01/03 04:12:10;;;;;;;0.00;0.00;;;;;;;-145.06;100.00;54560.75;10472595;28;20029;-69
2024/01/03 04:17:10;;;;;;;0.10;0.10;;;;;;;-145.06;100.00;54556.69;10440964;28;20171;-69
2024/01/03 04:22:10;;;;;;;0.10;0.10;;;;;;;-145.06;100.00;54603.28;10464379;28;20035;-69
2024/01/03 04:27:11;;;;;;;0.10;0.10;;;;;;;-145.06;100.00;54562.78;10467799;28;20020;-69
2024/01/03 04:32:11;;;;;;;0.10;0.10;;;;;;;-145.06;100.00;54611.38;10447807;28;20548;-69
2024/01/03 04:37:11;;;;;;;0.10;0.10;;;;;;;-145.06;100.00;55075.25;10469124;28;20391;-69
2024/01/03 04:42:12;;;;;;;0.10;0.10;;;;;;;-145.06;100.00;54674.19;10446504;28;20041;-70
2024/01/03 04:47:12;;;;;;;0.10;0.10;;;;;;;-145.06;100.00;54605.31;10451740;28;20154;-69
2024/01/03 04:52:13;;;;;;;0.00;0.00;;;;;;;-145.06;100.00;54678.22;10451658;28;20032;-69
2024/01/03 04:57:13;;;;;;;0.10;0.10;;;;;;;-145.06;100.00;54621.50;10470657;28;20025;-69
2024/01/03 05:02:13;;;;;;;0.10;0.10;;;;;;;-145.06;100.00;54597.19;10449695;28;20427;-69
2024/01/03 05:07:14;;;;;;;0.10;0.10;;;;;;;-145.06;100.00;54564.78;10462611;28;20270;-69
2024/01/03 05:12:14;;;;;;;0.00;0.00;;;;;;;-145.06;100.00;54532.38;10470549;28;21104;-69
2024/01/03 05:17:14;;;;;;;0.00;0.00;;;;;;;-145.06;100.00;54524.28;10468540;28;20021;-69
2024/01/03 05:22:15;;;;;;;0.10;0.10;;;;;;;-145.06;100.00;54548.59;10472861;28;20288;-69
2024/01/03 05:27:15;;;;;;;0.10;0.10;;;;;;;-145.06;100.00;54913.19;10461160;28;20029;-69
2024/01/03 05:32:16;;;;;;;0.10;0.10;;;;;;;-145.06;100.00;54672.16;10464342;28;20025;-69
2024/01/03 05:37:17;;;;;;;0.00;0.00;;;;;;;-145.06;100.00;54574.91;10455938;28;20013;-69
2024/01/03 05:42:17;;;;;;;0.00;0.00;;;;;;;-145.06;100.00;54623.53;10469318;28;20474;-70
2024/01/03 05:47:17;;;;;;;0.10;0.10;;;;;;;-145.06;100.00;54639.75;10473012;28;20512;-69
2024/01/03 05:52:17;;;;;;;0.00;0.00;;;;;;;-145.06;100.00;54639.75;10481159;28;20270;-69
2024/01/03 05:57:18;;;;;;;0.00;0.00;;;;;;;-145.06;100.00;54623.53;10474415;28;20056;-69
2024/01/03 06:02:18;;;;;;;0.00;0.00;;;;;;;-145.06;100.00;54631.63;10452543;28;20283;-69
2024/01/03 06:07:18;;;;;;;0.10;0.10;;;;;;;-145.06;100.00;54607.34;10470832;28;20054;-69
2024/01/03 06:12:19;;;;;;;0.10;0.10;;;;;;;-145.06;100.00;54581.00;10485081;28;20029;-69
2024/01/03 06:17:19;;;;;;;0.10;0.10;;;;;;;-145.06;100.00;54542.50;10493793;28;20451;-69
2024/01/03 06:22:19;;;;;;;0.10;0.10;;;;;;;-145.06;100.00;54528.34;10492591;28;20044;-69
2024/01/03 06:27:20;;;;;;;0.00;0.00;;;;;;;-145.06;100.00;54465.53;10460513;28;20157;-69
2024/01/03 06:32:20;;;;;;;0.00;0.00;;;;;;;-145.06;100.00;54467.56;10458232;28;20385;-69
2024/01/03 06:37:21;;;;;;;0.10;0.10;;;;;;;-145.06;100.00;54433.13;10467367;28;20021;-69
2024/01/03 06:42:21;;;;;;;0.10;0.10;;;;;;;-145.06;100.00;54408.84;10466949;28;20033;-68
2024/01/03 06:47:21;;;;;;;0.10;0.10;;;;;;;-145.06;100.00;54382.50;10467827;28;20017;-68
2024/01/03 06:52:22;;;;;;;0.10;0.10;;;;;;;-145.06;100.00;54374.41;10469090;28;20021;-68
2024/01/03 06:57:22;;;;;;;0.00;0.00;;;;;;;-145.06;100.00;54323.78;10465572;28;20111;-68
2024/01/03 07:02:24;;;;;;;0.10;0.10;;;;;;;-145.06;100.00;54309.59;10463424;28;20028;-68
2024/01/03 07:07:24;;;;;;;0.10;0.10;;;;;;;-145.06;100.00;54344.03;10452284;28;20025;-68
2024/01/03 07:12:24;;;;;;;0.10;0.10;;;;;;;-145.06;100.00;54313.63;10448234;28;20013;-68
2024/01/03 07:17:25;;;;;;;0.10;0.10;;;;;;;-145.06;100.00;54315.66;10461684;28;20025;-68
2024/01/03 07:22:25;;;;;;;0.00;0.00;;;;;;;-145.06;100.00;54309.59;10464294;28;20016;-68
2024/01/03 07:27:25;;;;;;;0.10;0.10;;;;;;;-145.06;100.00;54329.84;10464100;28;20035;-68
2024/01/03 07:32:26;;;;;;;0.10;0.10;;;;;;;-145.06;100.00;54327.81;10456515;28;20075;-68
2024/01/03 07:37:27;;;;;;;0.00;0.00;;;;;;;-145.06;100.00;54283.25;10447687;28;20383;-68
2024/01/03 07:42:27;;;;;;;0.08;0.08;;;;;;;-145.06;100.00;54293.38;10463428;28;20219;-68
2024/01/03 07:47:28;;;;;;;0.10;0.10;;;;;;;-145.06;100.00;54354.16;10461202;28;20025;-68
2024/01/03 07:52:28;;;;;;;0.10;0.10;;;;;;;-145.06;100.00;54400.72;10476285;28;20139;-69
2024/01/03 07:57:28;;;;;;;0.10;0.10;;;;;;;-145.06;100.00;54475.66;10481560;28;20021;-68
2024/01/03 08:02:29;;;;;;;0.03;0.03;;;;;;;-145.06;100.00;54522.25;10464030;28;20095;-69
2024/01/03 08:07:29;;;;;;;0.00;0.00;;;;;;;-145.06;100.00;54607.34;10480341;28;20028;-70
2024/01/03 08:12:29;;;;;;;0.03;0.03;;;;;;;-145.06;100.00;54741.03;10469373;28;20263;-70
2024/01/03 08:17:30;;;;;;;0.00;0.00;;;;;;;-145.06;100.00;54698.47;10469844;28;20099;-70
2024/01/03 08:22:30;;;;;;;0.10;0.10;;;;;;;-145.06;100.00;54734.94;10463316;28;20439;-70
2024/01/03 08:27:32;;;;;;;0.10;0.10;;;;;;;-145.06;100.00;54585.06;10471279;28;20398;-70
2024/01/03 08:32:35;;;;;;;0.00;0.00;;;;;;;-145.06;100.00;54497.94;10466623;28;20386;-69
2024/01/03 08:37:36;;;;;;;0.08;0.08;;;;;;;-145.06;100.00;54408.84;10476939;28;20031;-68
2024/01/03 08:42:36;;;;;;;0.00;0.00;;;;;;;-145.06;100.00;54352.13;10463266;28;20395;-68
2024/01/03 08:47:36;;;;;;;0.00;0.00;;;;;;;-145.06;100.00;54315.66;10458814;28;20034;-68
2024/01/03 08:52:36;;;;;;;0.10;0.10;;;;;;;-145.06;100.00;54329.84;10451960;28;20016;-69
2024/01/03 08:57:37;;;;;;;0.10;0.10;;;;;;;-145.06;100.00;54327.81;10464729;28;20025;-68
2024/01/03 09:02:38;;;;;;;0.10;0.10;;;;;;;-145.06;100.00;54317.69;10456983;28;20112;-69
2024/01/03 09:07:38;;;;;;;0.00;0.00;;;;;;;-145.06;100.00;54295.41;10446045;28;20028;-69
2024/01/03 09:12:39;;;;;;;0.00;0.00;;;;;;;-145.06;100.00;54295.41;10457378;28;20021;-69
2024/01/03 09:17:42;;;;;;;0.00;0.00;;;;;;;-145.06;100.00;54232.63;10437321;28;20401;-68
2024/01/03 09:22:43;;;;;;;0.10;0.10;;;;;;;-145.06;100.00;54240.72;10453792;28;20070;-68
2024/01/03 09:27:43;;;;;;;0.00;0.00;;;;;;;-145.06;100.00;54242.75;10458235;28;20508;-68
2024/01/03 09:32:43;;;;;;;0.10;0.10;;;;;;;-145.06;100.00;54228.56;10460588;28;20316;-68
2024/01/03 09:37:43;;;;;;;0.10;0.10;;;;;;;-145.06;100.00;54218.44;10454197;28;20027;-68
2024/01/03 09:42:45;;;;;;;0.10;0.10;;;;;;;-145.06;100.00;54204.28;10460568;28;20025;-68
2024/01/03 09:47:46;;;;;;;0.10;0.10;;;;;;;-145.06;100.00;54186.03;10432507;28;20497;-68
2024/01/03 09:52:48;;;;;;;0.10;0.10;;;;;;;-145.06;100.00;54194.16;10455907;28;20044;-68
2024/01/03 09:57:52;;;;;;;0.10;0.10;;;;;;;-145.06;100.00;54202.25;10460814;28;20020;-68
2024/01/03 10:02:52;;;;;;;0.10;0.10;;;;;;;-145.06;100.00;54157.69;10453532;28;20021;-69
2024/01/03 10:07:52;;;;;;;0.10;0.10;;;;;;;-145.06;100.00;54175.91;10454061;28;20033;-68
2024/01/03 10:12:53;;;;;;;0.10;0.10;;;;;;;-145.06;100.00;54153.63;10457656;28;20020;-68
2024/01/03 10:18:05;;;;;;;0.00;0.00;;;;;;;-145.06;100.00;54143.50;10441543;28;20452;-68
2024/01/03 10:23:21;;;;;;;0.10;0.10;;;;;;;-145.06;100.00;54167.81;10433180;28;20059;-69
2024/01/03 10:28:21;;;;;;;0.00;0.00;;;;;;;-145.06;100.00;54186.03;10449367;28;20024;-68
2024/01/03 10:33:22;;;;;;;0.00;0.00;;;;;;;-145.06;100.00;54149.59;10449451;28;20016;-68
2024/01/03 10:38:24;;;;;;;0.10;0.10;;;;;;;-145.06;100.00;54175.91;10456725;28;20035;-68
2024/01/03 10:43:24;;;;;;;0.00;0.00;;;;;;;-145.06;100.00;54157.69;10454207;28;20017;-69
2024/01/03 10:48:25;;;;;;;0.10;0.10;;;;;;;-145.06;100.00;54173.91;10452364;28;20017;-69
2024/01/03 10:53:31;;;;;;;0.10;0.10;;;;;;;-145.06;100.00;54147.56;10431879;28;20025;-67
2024/01/03 10:58:31;;;;;;;0.08;0.08;;;;;;;-145.06;100.00;54167.81;10455248;28;20021;-69
2024/01/03 11:03:40;;;;;;;0.00;0.00;;;;;;;-145.06;100.00;54175.91;10454896;28;20035;-69
2024/01/03 11:08:52;;;;;;;0.00;0.00;;;;;;;-145.06;100.00;54141.50;10463817;28;20278;-68
2024/01/03 11:13:52;;;;;;;0.00;0.00;;;;;;;-145.06;100.00;54155.66;10455877;28;20024;-68
2024/01/03 11:18:52;;;;;;;0.10;0.10;;;;;;;-145.06;100.00;54155.66;10458790;28;20031;-68
2024/01/03 11:23:53;;;;;;;0.00;0.00;;;;;;;-145.06;100.00;54157.69;10460409;28;20382;-68
2024/01/03 11:28:53;;;;;;;0.00;0.00;;;;;;;-145.06;100.00;54153.63;10461384;28;20021;-67
2024/01/03 11:33:54;;;;;;;0.10;0.10;;;;;;;-145.06;100.00;54163.75;10462951;28;20390;-68
2024/01/03 11:38:54;;;;;;;0.10;0.10;;;;;;;-145.06;100.00;54175.91;10461981;28;20021;-68
2024/01/03 11:43:54;;;;;;;0.10;0.10;;;;;;;-145.06;100.00;54155.66;10471190;28;20020;-68
2024/01/03 11:49:06;;;;;;;0.00;0.00;;;;;;;-145.06;100.00;54155.66;10462311;28;20024;-67
2024/01/03 11:54:08;;;;;;;0.10;0.10;;;;;;;-145.06;100.00;54188.06;10462970;28;20025;-68
2024/01/03 11:59:09;;;;;;;0.10;0.10;;;;;;;-145.06;100.00;54163.75;10460924;28;20037;-67
2024/01/03 12:04:10;;;;;;;0.00;0.00;;;;;;;-145.06;100.00;54155.66;10461532;28;20033;-67
2024/01/03 12:09:11;;;;;;;0.10;0.10;;;;;;;-145.06;100.00;54157.69;10448388;28;20100;-67
2024/01/03 12:14:18;;;;;;;0.00;0.00;;;;;;;-145.06;100.00;54171.88;10459810;28;20024;-67
2024/01/03 12:19:25;;;;;;;0.10;0.10;;;;;;;-145.06;100.00;54163.75;10463157;28;20075;-67
2024/01/03 12:24:38;;;;;;;0.10;0.10;;;;;;;-145.06;100.00;54182.00;10458396;28;20382;-67
2024/01/03 12:29:39;;;;;;;0.10;0.10;;;;;;;-145.06;100.00;54200.22;10463596;28;20092;-68
2024/01/03 12:34:40;;;;;;;0.10;0.10;;;;;;;-145.06;100.00;54171.88;10460639;28;20346;-67
2024/01/03 12:39:41;;;;;;;0.10;0.10;;;;;;;-145.06;100.00;54163.75;10442148;28;20017;-67
2024/01/03 12:44:43;;;;;;;0.10;0.10;;;;;;;-145.06;100.00;54137.44;10459618;28;20485;-68
2024/01/03 12:49:44;;;;;;;0.00;0.00;;;;;;;-145.06;100.00;54234.66;10448253;28;20024;-67
2024/01/03 12:54:44;;;;;;;0.10;0.10;;;;;;;-145.06;100.00;54196.16;10462053;28;20518;-67
2024/01/03 12:59:44;;;;;;;0.03;0.03;;;;;;;-145.06;100.00;54230.59;10462812;28;20025;-67
2024/01/03 13:04:45;;;;;;;0.10;0.10;;;;;;;-145.06;100.00;54238.69;10449541;28;20265;-67
2024/01/03 13:09:46;;;;;;;0.00;0.00;;;;;;;-145.06;100.00;54246.81;10441288;28;20028;-67
2024/01/03 13:14:46;;;;;;;0.10;0.10;;;;;;;-145.06;100.00;54252.88;10443983;28;20436;-68
2024/01/03 13:19:47;;;;;;;0.00;0.00;;;;;;;-145.06;100.00;54228.56;10459722;28;20023;-67
2024/01/03 13:24:47;;;;;;;0.10;0.10;;;;;;;-145.06;100.00;54281.22;10454757;28;20021;-67
2024/01/03 13:29:48;;;;;;;0.08;0.08;;;;;;;-145.06;100.00;54287.31;10431548;28;20028;-68
2024/01/03 13:34:48;;;;;;;0.10;0.10;;;;;;;-145.06;100.00;54323.78;10443137;28;20021;-68
2024/01/03 13:39:48;;;;;;;0.05;0.05;;;;;;;-145.06;100.00;54386.56;10441707;28;20398;-67
2024/01/03 13:44:49;;;;;;;0.10;0.10;;;;;;;-145.06;100.00;54412.88;10458792;28;20024;-67
2024/01/03 13:49:49;;;;;;;0.10;0.10;;;;;;;-145.06;100.00;54402.75;10464054;28;20386;-67
2024/01/03 13:54:49;;;;;;;0.10;0.10;;;;;;;-145.06;100.00;54390.59;10471653;28;20324;-67
2024/01/03 13:59:49;;;;;;;0.10;0.10;;;;;;;-145.06;100.00;54384.53;10450111;28;20108;-67
2024/01/03 14:04:50;;;;;;;0.10;0.10;;;;;;;-145.06;100.00;54390.59;10450743;28;20088;-67
2024/01/03 14:09:50;;;;;;;0.10;0.10;;;;;;;-145.06;100.00;54350.09;10449329;28;20055;-68
2024/01/03 14:14:50;;;;;;;0.10;0.10;;;;;;;-145.06;100.00;54404.78;10450805;28;20017;-67
2024/01/03 14:19:50;;;;;;;0.10;0.10;;;;;;;-145.06;100.00;54384.53;10448282;28;20024;-68
2024/01/03 14:24:53;;;;;;;0.10;0.10;;;;;;;-145.06;100.00;54404.78;10452498;28;20013;-67
2024/01/03 14:29:53;;;;;;;0.10;0.10;;;;;;;-145.06;100.00;54390.59;10434098;28;20494;-68
2024/01/03 14:34:53;;;;;;;0.03;0.03;;;;;;;-145.06;100.00;54431.13;10437824;28;20024;-67
2024/01/03 14:39:53;;;;;;;0.00;0.00;;;;;;;-145.06;100.00;54423.00;10451595;28;20082;-68
2024/01/03 14:44:54;;;;;;;0.10;0.10;;;;;;;-145.06;100.00;54455.41;10466204;28;20044;-69
2024/01/03 14:49:54;;;;;;;0.00;0.00;;;;;;;-145.06;100.00;54459.47;10471818;28;20078;-68
2024/01/03 14:54:54;;;;;;;0.10;0.10;;;;;;;-145.06;100.00;54483.78;10459173;28;20386;-68
2024/01/03 14:59:55;;;;;;;0.10;0.10;;;;;;;-145.06;100.00;54483.78;10471296;28;20025;-68
2024/01/03 15:04:56;;;;;;;0.00;0.00;;;;;;;-145.06;100.00;54512.13;10470012;28;20048;-69
2024/01/03 15:09:56;;;;;;;0.00;0.00;;;;;;;-145.06;100.00;54516.19;10474778;28;20048;-68
2024/01/03 15:14:56;;;;;;;0.00;0.00;;;;;;;-145.06;100.00;54536.44;10477176;28;20056;-68
2024/01/03 15:19:57;;;;;;;0.03;0.03;;;;;;;-145.06;100.00;54514.16;10477712;28;20032;-68
2024/01/03 15:24:57;;;;;;;0.00;0.00;;;;;;;-145.06;100.00;54469.59;10479121;28;20027;-68
2024/01/03 15:29:57;;;;;;;0.10;0.10;;;;;;;-145.06;100.00;54504.03;10466639;28;20269;-69
2024/01/03 15:34:58;;;;;;;0.03;0.03;;;;;;;-145.06;100.00;54491.88;10435102;28;20256;-68
2024/01/03 15:39:58;;;;;;;0.10;0.10;;;;;;;-145.06;100.00;54530.34;10460656;28;20378;-68
2024/01/03 15:44:58;;;;;;;0.10;0.10;;;;;;;-145.06;100.00;54556.69;10467537;28;20017;-69
2024/01/03 15:50:00;;;;;;;0.00;0.00;;;;;;;-145.06;100.00;54593.16;10476078;28;20037;-68
2024/01/03 15:55:00;;;;;;;0.00;0.00;;;;;;;-145.06;100.00;54670.13;10469701;28;20021;-69
2024/01/03 16:00:04;;;;;;;0.00;0.00;;;;;;;-145.06;100.00;54676.19;10462824;28;20013;-69
2024/01/03 16:05:05;;;;;;;0.10;0.10;;;;;;;-145.06;100.00;54655.94;10461513;28;20037;-68
2024/01/03 16:10:06;;;;;;;0.10;0.10;;;;;;;-145.06;100.00;54674.19;10456153;28;20024;-68
2024/01/03 16:15:06;;;;;;;0.00;0.00;;;;;;;-145.06;100.00;54682.28;10465919;28;20474;-67
2024/01/03 16:20:07;;;;;;;0.00;0.00;;;;;;;-145.06;100.00;54690.38;10456991;28;20075;-68
2024/01/03 16:25:10;;;;;;;0.00;0.00;;;;;;;-145.06;100.00;54714.69;10468467;28;20172;-68
2024/01/03 16:30:11;;;;;;;0.10;0.10;;;;;;;-145.06;100.00;54757.22;10475927;28;20052;-69
2024/01/03 16:35:13;;;;;;;0.08;0.08;;;;;;;-145.06;100.00;54791.66;10461842;28;20020;-69
2024/01/03 16:40:14;;;;;;;0.10;0.10;;;;;;;-145.06;100.00;54844.31;10458168;28;20032;-69
2024/01/03 16:45:14;;;;;;;0.10;0.10;;;;;;;-145.06;100.00;54876.72;10469825;28;20025;-69
2024/01/03 16:50:15;;;;;;;0.10;0.10;;;;;;;-145.06;100.00;54858.50;10469643;28;20025;-72
2024/01/03 16:55:15;;;;;;;0.10;0.10;;;;;;;-145.06;100.00;54868.63;10460695;28;20055;-72
2024/01/03 17:00:17;;;;;;;0.10;0.10;;;;;;;-145.06;100.00;54858.50;10460611;28;20025;-74
2024/01/03 17:05:18;;;;;;;0.00;0.00;;;;;;;-145.06;100.00;54913.19;10455327;28;20041;-74
2024/01/03 17:10:18;;;;;;;0.10;0.10;;;;;;;-145.06;100.00;54903.06;10468410;28;20385;-74
2024/01/03 17:15:19;;;;;;;0.00;0.00;;;;;;;-145.06;100.00;54937.50;10456497;28;20082;-75
2024/01/03 17:20:20;;;;;;;0.00;0.00;;;;;;;-145.06;100.00;54945.59;10459363;28;20021;-70
2024/01/03 17:25:20;;;;;;;0.00;0.00;;;;;;;-145.06;100.00;54933.44;10469922;28;20695;-69
2024/01/03 17:30:20;;;;;;;0.00;0.00;;;;;;;-145.06;100.00;54957.75;10456862;28;20016;-69
2024/01/03 17:35:22;;;;;;;0.00;0.00;;;;;;;-145.06;100.00;54953.72;10480171;28;20397;-69
2024/01/03 17:40:22;;;;;;;0.00;0.00;;;;;;;-145.06;100.00;55004.34;10477367;28;20031;-68
2024/01/03 17:45:23;;;;;;;0.00;0.00;;;;;;;-145.06;100.00;54976.00;10464677;28;20043;-68
2024/01/03 17:50:23;;;;;;;0.10;0.10;;;;;;;-145.06;100.00;54973.97;10470693;28;20382;-69
2024/01/03 17:55:23;;;;;;;0.10;0.10;;;;;;;-145.06;100.00;55002.31;10466425;28;20308;-69
2024/01/03 18:00:24;;;;;;;0.10;0.10;;;;;;;-145.06;100.00;54990.19;10467625;28;20486;-69
2024/01/03 18:05:24;;;;;;;0.05;0.05;;;;;;;-145.06;100.00;54937.50;10449794;28;20024;-68
2024/01/03 18:10:24;;;;;;;0.00;0.00;;;;;;;-145.06;100.00;54957.75;10443586;28;20058;-75
2024/01/03 18:15:25;;;;;;;0.10;0.10;;;;;;;-145.06;100.00;54846.34;10447933;28;20358;-74
2024/01/03 18:20:25;;;;;;;0.00;0.00;;;;;;;-145.06;100.00;54787.59;10468491;28;20028;-74
2024/01/03 18:25:26;;;;;;;0.00;0.00;;;;;;;-145.06;100.00;54759.25;10465798;28;20087;-74
2024/01/03 18:30:26;;;;;;;0.00;0.00;;;;;;;-145.06;100.00;54747.09;10447493;28;20013;-74
2024/01/03 18:35:28;;;;;;;0.00;0.00;;;;;;;-145.06;100.00;54732.91;10463564;28;20404;-74
2024/01/03 18:40:28;;;;;;;0.00;0.00;;;;;;;-145.06;100.00;54722.78;10463584;28;20071;-74
2024/01/03 18:45:29;;;;;;;0.10;0.10;;;;;;;-145.06;100.00;54712.66;10472333;28;20047;-74
2024/01/03 18:50:29;;;;;;;0.00;0.00;;;;;;;-145.06;100.00;54647.84;10455350;28;20025;-74
2024/01/03 18:55:31;;;;;;;0.10;0.10;;;;;;;-145.06;100.00;54581.00;10461644;28;20017;-73
2024/01/03 19:00:35;;;;;;;0.10;0.10;;;;;;;-145.06;100.00;54544.53;10472191;28;20070;-73
2024/01/03 19:05:35;;;;;;;;;;;;;;;-145.06;100.00;54548.59;10467437;28;20036;-73
2024/01/03 19:10:36;;;;;;;0.10;0.10;;;;;;;-145.06;100.00;54536.44;10466636;28;19916;-73
2024/01/03 19:15:36;;;;;;;0.00;0.00;;;;;;;-145.06;100.00;54540.50;10461361;28;20101;-73
2024/01/03 19:20:37;;;;;;;0.00;0.00;;;;;;;-145.06;100.00;54504.03;10451401;28;20017;-73
2024/01/03 19:25:37;;;;;;;0.10;0.10;;;;;;;-145.06;100.00;54499.97;10467624;28;20032;-73
2024/01/03 19:30:40;;;;;;;0.00;0.00;;;;;;;-145.06;100.00;54518.22;10471805;28;20031;-72
2024/01/03 19:35:40;;;;;;;0.00;0.00;;;;;;;-145.06;100.00;54516.19;10470623;28;20021;-73
2024/01/03 19:40:40;;;;;;;0.10;0.10;;;;;;;-145.06;100.00;54544.53;10463637;28;20017;-73
2024/01/03 19:45:40;;;;;;;0.00;0.00;;;;;;;-145.06;100.00;54540.50;10468152;28;20013;-73
2024/01/03 19:50:41;;;;;;;0.00;0.00;;;;;;;-145.06;100.00;54589.09;10461679;28;20263;-72
2024/01/03 19:55:42;;;;;;;0.00;0.00;;;;;;;-145.06;100.00;54581.00;10464173;28;20020;-73
2024/01/03 20:00:42;;;;;;;0.00;0.00;;;;;;;-145.06;100.00;54574.91;10460678;28;20377;-73
2024/01/03 20:05:42;;;;;;;0.00;0.00;;;;;;;-145.06;100.00;54564.78;10461412;28;20064;-73
2024/01/03 20:10:42;;;;;;;0.10;0.10;;;;;;;-145.06;100.00;54566.81;10442964;28;20020;-72
2024/01/03 20:15:43;;;;;;;0.00;0.00;;;;;;;-145.06;100.00;54512.13;10460345;28;20084;-73
2024/01/03 20:20:43;;;;;;;0.00;0.00;;;;;;;-145.06;100.00;54485.81;10463238;28;20077;-72
2024/01/03 20:25:44;;;;;;;0.10;0.10;;;;;;;-145.06;100.00;54504.03;10461812;28;20024;-71
2024/01/03 20:30:44;;;;;;;0.00;0.00;;;;;;;-145.06;100.00;54504.03;10466440;28;20454;-72
2024/01/03 20:35:44;;;;;;;0.10;0.10;;;;;;;-145.06;100.00;54497.94;10461528;28;20096;-72
2024/01/03 20:40:45;;;;;;;0.00;0.00;;;;;;;-145.06;100.00;54469.59;10465303;28;20020;-72
2024/01/03 20:45:45;;;;;;;0.00;0.00;;;;;;;-145.06;100.00;54457.44;10440043;28;20024;-72
2024/01/03 20:50:45;;;;;;;0.00;0.00;;;;;;;-145.06;100.00;54455.41;10456952;28;20070;-72
2024/01/03 20:55:46;;;;;;;0.10;0.10;;;;;;;-145.06;100.00;54479.72;10467168;28;20021;-73
2024/01/03 21:00:46;;;;;;;0.00;0.00;;;;;;;-145.06;100.00;54475.66;10466492;28;20366;-72
2024/01/03 21:05:46;;;;;;;0.00;0.00;;;;;;;-145.06;100.00;54487.81;10459358;28;20017;-73
2024/01/03 21:10:47;;;;;;;0.10;0.10;;;;;;;-145.06;100.00;54489.84;10474648;28;20583;-73
2024/01/03 21:15:47;;;;;;;0.00;0.00;;;;;;;-145.06;100.00;54473.66;10457649;28;20021;-73
2024/01/03 21:20:49;;;;;;;0.10;0.10;;;;;;;-145.06;100.00;54479.72;10429988;28;20017;-74
2024/01/03 21:25:50;;;;;;;0.00;0.00;;;;;;;-145.06;100.00;54471.63;10437178;28;20024;-73
2024/01/03 21:30:50;;;;;;;0.00;0.00;;;;;;;-145.06;100.00;54477.69;10455891;28;20390;-74
2024/01/03 21:35:52;;;;;;;0.00;0.00;;;;;;;-145.06;100.00;54467.56;10452955;28;20510;-73
2024/01/03 21:40:52;;;;;;;0.00;0.00;;;;;;;-145.06;100.00;54475.66;10443937;28;20024;-73
2024/01/03 21:45:56;;;;;;;0.00;0.00;;;;;;;-145.06;100.00;54451.38;10464701;28;20016;-73
2024/01/03 21:50:56;;;;;;;0.00;0.00;;;;;;;-145.06;100.00;54477.69;10459909;28;20494;-72
2024/01/03 21:55:57;;;;;;;0.00;0.00;;;;;;;-145.06;100.00;54487.81;10457218;28;20013;-73
2024/01/03 22:00:57;;;;;;;0.10;0.10;;;;;;;-145.06;100.00;54485.81;10439150;28;20035;-73
2024/01/03 22:05:58;;;;;;;0.00;0.00;;;;;;;-145.06;100.00;54431.13;10458236;28;20036;-73
2024/01/03 22:10:59;;;;;;;0.00;0.00;;;;;;;-145.06;100.00;54463.53;10436854;28;20030;-73
2024/01/03 22:15:59;;;;;;;0.00;0.00;;;;;;;-145.06;100.00;54441.25;10440140;28;20025;-73
2024/01/03 22:21:00;;;;;;;0.00;0.00;;;;;;;-145.06;100.00;54465.53;10458146;28;20506;-72
2024/01/03 22:26:00;;;;;;;0.00;0.00;;;;;;;-145.06;100.00;54439.22;10450456;28;20033;-73
2024/01/03 22:31:00;;;;;;;0.10;0.10;;;;;;;-145.06;100.00;54465.53;10443895;28;20017;-72